Time;durP1;ratioP1;P1;durP2;ratioP2;P2;SDS_P1;SDS_P2;PMS_P1;PMS_P2;Temp;Humidity;BMP_temperature;BMP_pressure;BME280_temperature;BME280_humidity;BME280_pressure;Samples;Min_cycle;Max_cycle;Signal;HPM_P1;HPM_P2
2021/11/09 00:00:13;;;;;;;18.58;7.40;;;;;;;-0.80;100.00;96279.84;5010328;28;20488;-77
2021/11/09 00:03:00;;;;;;;23.40;6.90;;;;;;;-0.82;100.00;96279.22;5026738;28;20119;-77
2021/11/09 00:05:31;;;;;;;19.08;8.68;;;;;;;-0.70;100.00;96288.94;5029043;28;20053;-77
2021/11/09 00:07:59;;;;;;;17.65;7.50;;;;;;;-0.68;100.00;96286.16;5041167;28;20046;-77
2021/11/09 00:10:28;;;;;;;14.13;6.32;;;;;;;-0.65;100.00;96279.84;5024179;28;20046;-77
2021/11/09 00:13:03;;;;;;;12.35;6.05;;;;;;;-0.62;100.00;96285.44;5018249;28;20049;-77
2021/11/09 00:15:31;;;;;;;16.02;6.30;;;;;;;-0.69;100.00;96287.13;5010946;28;20065;-77
2021/11/09 00:18:00;;;;;;;17.13;6.38;;;;;;;-0.69;100.00;96289.72;5015429;28;20046;-77
2021/11/09 00:20:28;;;;;;;17.92;6.90;;;;;;;-0.62;100.00;96285.44;5010080;28;20050;-77
2021/11/09 00:22:55;;;;;;;14.52;6.53;;;;;;;-0.56;100.00;96283.91;5026658;28;20049;-77
2021/11/09 00:25:22;;;;;;;15.00;6.53;;;;;;;-0.55;100.00;96270.03;5029590;28;20045;-77
2021/11/09 00:27:48;;;;;;;16.20;5.90;;;;;;;-0.56;100.00;96273.56;5024878;28;20069;-77
2021/11/09 00:30:15;;;;;;;13.27;6.05;;;;;;;-0.55;100.00;96281.19;5009904;28;20041;-77
2021/11/09 00:32:44;;;;;;;15.45;6.32;;;;;;;-0.45;100.00;96290.44;5013868;28;20053;-77
2021/11/09 00:35:12;;;;;;;13.60;6.32;;;;;;;-0.41;100.00;96291.69;5008649;28;20048;-77
2021/11/09 00:37:39;;;;;;;16.83;6.28;;;;;;;-0.44;100.00;96286.88;5020653;28;20049;-77
2021/11/09 00:40:06;;;;;;;12.40;5.70;;;;;;;-0.39;100.00;96294.88;5029389;28;20052;-77
2021/11/09 00:42:32;;;;;;;13.30;6.18;;;;;;;-0.45;100.00;96293.00;5028807;28;20046;-77
2021/11/09 00:44:57;;;;;;;13.75;5.72;;;;;;;-0.46;100.00;96299.97;5019616;28;20474;-77
2021/11/09 00:47:24;;;;;;;13.15;5.78;;;;;;;-0.30;100.00;96296.38;5029056;28;20055;-77
2021/11/09 00:49:50;;;;;;;12.40;5.47;;;;;;;-0.30;100.00;96303.31;5018238;28;20171;-77
2021/11/09 00:52:15;;;;;;;17.38;6.38;;;;;;;-0.35;100.00;96299.50;5027922;28;20116;-77
2021/11/09 00:54:41;;;;;;;14.82;5.90;;;;;;;-0.31;100.00;96297.38;5020996;28;20054;-77
2021/11/09 00:57:07;;;;;;;12.02;5.65;;;;;;;-0.28;100.00;96301.38;5024759;28;20522;-77
2021/11/09 00:59:33;;;;;;;12.00;6.07;;;;;;;-0.32;100.00;96300.94;5023933;28;20088;-77
2021/11/09 01:01:58;;;;;;;14.13;5.70;;;;;;;-0.33;100.00;96294.16;5028838;28;20053;-77
2021/11/09 01:04:25;;;;;;;13.65;5.97;;;;;;;-0.23;100.00;96299.84;5027660;28;20041;-77
2021/11/09 01:06:51;;;;;;;13.50;5.95;;;;;;;-0.26;100.00;96284.69;5027612;28;20388;-77
2021/11/09 01:09:17;;;;;;;18.10;6.15;;;;;;;-0.26;100.00;96291.63;5024001;28;20038;-77
2021/11/09 01:11:43;;;;;;;14.43;6.25;;;;;;;-0.19;100.00;96301.09;5007793;28;20577;-77
2021/11/09 01:14:08;;;;;;;17.00;6.32;;;;;;;-0.14;100.00;96291.97;5015521;28;20064;-77
2021/11/09 01:16:35;;;;;;;12.65;6.43;;;;;;;-0.18;100.00;96292.34;5028601;28;20637;-77
2021/11/09 01:19:04;;;;;;;17.58;6.78;;;;;;;-0.08;100.00;96296.44;5023607;28;20050;-77
2021/11/09 01:21:32;;;;;;;15.38;6.45;;;;;;;-0.06;100.00;96294.44;5028252;28;20051;-77
2021/11/09 01:23:57;;;;;;;18.20;7.05;;;;;;;-0.05;100.00;96301.25;5023291;28;20127;-77
2021/11/09 01:26:24;;;;;;;20.40;7.50;;;;;;;-0.09;100.00;96302.59;5027915;28;20045;-77
2021/11/09 01:28:53;;;;;;;18.35;6.80;;;;;;;-0.03;100.00;96289.72;5026817;28;20064;-77
2021/11/09 01:31:20;;;;;;;20.25;6.88;;;;;;;-0.02;100.00;96285.34;5013085;28;20689;-77
2021/11/09 01:33:46;;;;;;;17.52;6.78;;;;;;;0.06;100.00;96280.06;5037572;28;20038;-77
2021/11/09 01:36:11;;;;;;;16.65;7.05;;;;;;;0.05;100.00;96280.25;5028400;28;20049;-77
2021/11/09 01:38:37;;;;;;;15.30;6.85;;;;;;;0.08;100.00;96278.06;5028182;28;20178;-77
2021/11/09 01:41:05;;;;;;;13.85;6.45;;;;;;;0.05;100.00;96281.03;5018014;28;20057;-77
2021/11/09 01:43:32;;;;;;;17.92;6.53;;;;;;;0.01;100.00;96274.63;5012463;28;20041;-77
2021/11/09 01:45:58;;;;;;;11.32;5.78;;;;;;;0.03;100.00;96270.09;5011327;28;20049;-77
2021/11/09 01:48:25;;;;;;;14.57;6.07;;;;;;;0.15;100.00;96280.75;5013900;28;20125;-77
2021/11/09 01:50:54;;;;;;;14.20;6.55;;;;;;;0.14;100.00;96279.13;5014048;28;20049;-77
2021/11/09 01:53:20;;;;;;;16.40;6.38;;;;;;;0.06;100.00;96282.66;5027149;28;20449;-77
2021/11/09 01:55:47;;;;;;;14.05;6.75;;;;;;;-0.15;100.00;96288.59;5027002;28;20072;-77
2021/11/09 01:58:14;;;;;;;18.30;7.47;;;;;;;-0.14;100.00;96286.78;5025830;28;20041;-77
2021/11/09 02:00:53;;;;;;;17.73;6.65;;;;;;;-0.11;100.00;96283.88;5026780;28;20446;-77
2021/11/09 02:03:18;;;;;;;18.15;6.57;;;;;;;0.04;100.00;96289.78;5012709;28;20117;-77
2021/11/09 02:05:45;;;;;;;14.68;6.78;;;;;;;0.17;100.00;96287.34;5007773;28;20049;-77
2021/11/09 02:08:11;;;;;;;13.35;5.85;;;;;;;0.15;100.00;96278.94;5017671;28;20063;-77
2021/11/09 02:10:40;;;;;;;14.52;6.80;;;;;;;0.12;100.00;96275.94;5027557;28;20044;-77
2021/11/09 02:13:06;;;;;;;15.18;6.45;;;;;;;0.22;100.00;96275.63;5017292;28;20048;-77
2021/11/09 02:15:35;;;;;;;17.20;6.38;;;;;;;0.22;100.00;96275.63;5026116;28;20103;-77
2021/11/09 02:18:02;;;;;;;13.30;6.90;;;;;;;0.14;100.00;96277.38;5028061;28;20049;-77
2021/11/09 02:20:29;;;;;;;17.90;7.25;;;;;;;0.20;100.00;96272.41;5026212;28;20045;-77
2021/11/09 02:22:56;;;;;;;13.35;6.53;;;;;;;0.09;100.00;96266.75;5022052;28;20119;-77
2021/11/09 02:25:23;;;;;;;15.18;7.20;;;;;;;0.08;100.00;96269.53;5027834;28;20517;-77
2021/11/09 02:27:50;;;;;;;19.00;6.40;;;;;;;0.03;100.00;96272.66;5023617;28;20034;-77
2021/11/09 02:30:19;;;;;;;14.25;6.50;;;;;;;0.01;100.00;96274.63;5008025;28;20052;-77
2021/11/09 02:32:46;;;;;;;16.65;6.72;;;;;;;0.04;100.00;96279.44;5009288;28;20572;-77
2021/11/09 02:35:13;;;;;;;24.38;6.93;;;;;;;0.14;100.00;96274.78;5017750;28;20451;-77
2021/11/09 02:37:40;;;;;;;19.90;6.72;;;;;;;-0.01;100.00;96276.59;5008018;28;20076;-77
2021/11/09 02:40:07;;;;;;;15.80;6.82;;;;;;;0.01;100.00;96277.22;5026645;28;20037;-77
2021/11/09 02:42:37;;;;;;;13.23;6.43;;;;;;;0.04;100.00;96284.59;5026036;28;20046;-77
2021/11/09 02:45:15;;;;;;;16.10;6.93;;;;;;;-0.11;100.00;96283.88;5027397;28;20049;-77
2021/11/09 02:50:54;;;;;;;16.98;6.72;;;;;;;-0.03;100.00;96284.56;4998868;28;20786;-77
2021/11/09 02:55:57;;;;;;;12.88;5.63;;;;;;;-0.16;100.00;96305.09;5026206;28;20489;-77
2021/11/09 03:03:29;;;;;;;12.82;6.07;;;;;;;-0.54;100.00;96303.44;5022389;28;20419;-77
2021/11/09 03:06:40;;;;;;;11.35;6.07;;;;;;;-0.66;100.00;96298.91;5023901;28;20418;-77
2021/11/09 03:08:48;;;;;;;11.45;5.55;;;;;;;-0.65;100.00;96300.53;5013890;28;20072;-77
2021/11/09 03:11:15;;;;;;;14.50;6.07;;;;;;;-0.75;100.00;96298.19;5026972;28;20041;-77
2021/11/09 03:13:45;;;;;;;17.20;6.47;;;;;;;-0.70;100.00;96295.88;5010076;28;20835;-77
2021/11/09 03:16:13;;;;;;;15.00;6.55;;;;;;;-0.89;100.00;96300.59;5010620;28;20042;-77
2021/11/09 03:18:44;;;;;;;12.52;6.18;;;;;;;-1.01;100.00;96293.47;5029670;28;20048;-77
2021/11/09 03:45:30;;;;;;;16.17;5.97;;;;;;;-1.15;100.00;96305.38;5020133;28;20469;-77
2021/11/09 03:48:04;;;;;;;13.43;5.75;;;;;;;-1.23;100.00;96304.47;5030364;28;20404;-77
2021/11/09 03:50:31;;;;;;;12.75;5.72;;;;;;;-1.38;100.00;96305.41;5025105;28;20037;-77
2021/11/09 04:11:45;;;;;;;10.45;5.57;;;;;;;-1.64;100.00;96312.56;5030003;28;20581;-77
2021/11/09 04:17:35;;;;;;;12.13;5.40;;;;;;;-1.77;100.00;96327.78;5023284;28;20553;-77
2021/11/09 04:19:35;;;;;;;16.52;5.72;;;;;;;-1.85;100.00;96325.25;5021008;28;20835;-77
2021/11/09 04:22:34;;;;;;;14.80;5.63;;;;;;;-1.80;100.00;96333.31;5026793;28;20041;-77
2021/11/09 04:32:42;;;;;;;12.52;6.20;;;;;;;-1.98;100.00;96334.38;5029157;28;20770;-77
2021/11/09 05:01:05;;;;;;;12.20;5.47;;;;;;;-2.02;100.00;96346.00;5028909;28;20041;-77
2021/11/09 05:10:20;;;;;;;16.52;5.60;;;;;;;-2.10;100.00;96343.47;5020124;28;20423;-76
2021/11/09 05:12:46;;;;;;;14.05;6.13;;;;;;;-2.12;100.00;96345.41;5028529;28;20132;-76
2021/11/09 05:15:12;;;;;;;18.92;6.22;;;;;;;-2.50;100.00;96347.81;5027700;28;20133;-77
2021/11/09 05:17:38;;;;;;;14.75;6.75;;;;;;;-2.55;100.00;96339.78;5026830;28;20099;-76
2021/11/09 05:20:04;;;;;;;17.98;7.00;;;;;;;-2.48;100.00;96351.03;5012688;28;20042;-76
2021/11/09 05:22:30;;;;;;;12.70;5.63;;;;;;;-2.40;100.00;96343.25;5010420;28;20065;-76
2021/11/09 05:24:56;;;;;;;16.42;5.88;;;;;;;-2.21;100.00;96346.41;5016159;28;20124;-76
2021/11/09 05:27:26;;;;;;;13.63;5.88;;;;;;;-2.14;100.00;96342.19;5027456;28;20060;-76
2021/11/09 05:29:51;;;;;;;12.02;5.78;;;;;;;-2.27;100.00;96348.69;5017433;28;20046;-76
2021/11/09 05:32:17;;;;;;;11.55;5.32;;;;;;;-2.21;100.00;96356.72;5027103;28;20115;-76
2021/11/09 05:34:42;;;;;;;13.00;5.85;;;;;;;-2.10;100.00;96353.78;5028290;28;20060;-76
2021/11/09 05:37:10;;;;;;;13.65;6.03;;;;;;;-2.14;100.00;96352.50;5042833;28;20610;-76
2021/11/09 05:40:00;;;;;;;14.40;6.30;;;;;;;-2.18;100.00;96356.41;5026958;28;20123;-76
2021/11/09 05:42:22;;;;;;;11.43;5.90;;;;;;;-2.14;100.00;96357.66;5027576;28;20511;-76
2021/11/09 05:44:49;;;;;;;15.98;6.57;;;;;;;-2.12;100.00;96351.38;5016461;28;20053;-76
2021/11/09 05:47:15;;;;;;;13.95;6.40;;;;;;;-2.18;100.00;96343.50;5017594;28;20065;-76
2021/11/09 05:49:41;;;;;;;14.50;6.65;;;;;;;-2.15;100.00;96348.34;5016470;28;20403;-76
2021/11/09 05:52:08;;;;;;;17.60;7.18;;;;;;;-2.04;100.00;96342.81;5008019;28;20049;-76
2021/11/09 05:54:34;;;;;;;14.55;7.72;;;;;;;-2.13;100.00;96343.81;5018873;28;20041;-76
2021/11/09 05:57:00;;;;;;;22.80;7.85;;;;;;;-2.04;100.00;96341.97;5025560;28;20041;-76
2021/11/09 05:59:26;;;;;;;19.23;8.40;;;;;;;-2.00;100.00;96338.88;5022211;28;20500;-76
2021/11/09 06:01:51;;;;;;;19.05;7.85;;;;;;;-2.06;100.00;96339.56;5023335;28;20053;-76
2021/11/09 06:04:17;;;;;;;21.05;10.02;;;;;;;-2.16;100.00;96328.66;5014067;28;20127;-76
2021/11/09 06:06:43;;;;;;;22.85;10.18;;;;;;;-2.20;100.00;96335.13;5024560;28;20459;-76
2021/11/09 06:09:08;;;;;;;18.85;9.60;;;;;;;-2.22;100.00;96339.66;5012717;28;20533;-76
2021/11/09 06:11:34;;;;;;;20.75;9.20;;;;;;;-2.19;100.00;96347.84;5025540;28;20092;-76
2021/11/09 06:14:00;;;;;;;29.67;10.57;;;;;;;-2.06;100.00;96347.31;5027269;28;20037;-76
2021/11/09 06:16:25;;;;;;;27.35;10.52;;;;;;;-1.95;100.00;96346.94;5027503;28;20123;-76
2021/11/09 06:18:51;;;;;;;31.17;10.73;;;;;;;-1.74;100.00;96350.66;5028195;28;20062;-76
2021/11/09 06:21:17;;;;;;;39.33;10.65;;;;;;;-1.68;100.00;96350.00;5016871;28;20049;-76
2021/11/09 06:23:42;;;;;;;31.73;11.25;;;;;;;-1.62;100.00;96357.06;5027364;28;20045;-76
2021/11/09 06:26:10;;;;;;;33.10;12.70;;;;;;;-1.66;100.00;96360.94;5026792;28;20141;-76
2021/11/09 06:28:38;;;;;;;46.13;12.82;;;;;;;-1.67;100.00;96364.50;5010265;28;20045;-76
2021/11/09 06:31:03;;;;;;;30.15;12.73;;;;;;;-1.60;100.00;96359.47;5016134;28;20053;-76
2021/11/09 06:33:30;;;;;;;46.28;14.43;;;;;;;-1.48;100.00;96352.13;5027619;28;20052;-76
2021/11/09 06:35:57;;;;;;;45.67;13.68;;;;;;;-1.33;100.00;96354.78;5027182;28;20045;-76
2021/11/09 06:38:22;;;;;;;34.75;13.68;;;;;;;-1.25;100.00;96358.09;5025753;28;20839;-76
2021/11/09 06:40:49;;;;;;;39.30;14.00;;;;;;;-1.28;100.00;96366.19;5019570;28;20045;-76
2021/11/09 06:43:15;;;;;;;55.22;15.15;;;;;;;-1.28;100.00;96379.09;5027748;28;20054;-76
2021/11/09 06:45:41;;;;;;;39.90;14.18;;;;;;;-1.13;100.00;96380.94;5021942;28;20127;-76
2021/11/09 06:48:07;;;;;;;79.00;16.83;;;;;;;-1.25;100.00;96383.91;5027734;28;20506;-76
2021/11/09 06:50:33;;;;;;;91.53;17.00;;;;;;;-1.30;100.00;96391.38;5028330;28;20057;-75
2021/11/09 06:52:59;;;;;;;104.75;17.63;;;;;;;-1.29;100.00;96382.66;5010087;28;20042;-76
2021/11/09 06:55:25;;;;;;;58.58;17.10;;;;;;;-1.18;100.00;96393.56;5028360;28;20519;-76
2021/11/09 06:57:51;;;;;;;84.38;18.13;;;;;;;-1.20;100.00;96400.69;5029963;28;20148;-76
2021/11/09 07:00:22;;;;;;;82.68;17.38;;;;;;;-1.05;100.00;96393.75;5023975;28;20045;-76
2021/11/09 07:02:48;;;;;;;45.72;16.17;;;;;;;-1.02;100.00;96398.59;5024942;28;20045;-76
2021/11/09 07:05:13;;;;;;;53.80;16.73;;;;;;;-0.92;100.00;96403.50;5029016;28;20072;-76
2021/11/09 07:07:40;;;;;;;56.33;17.05;;;;;;;-0.98;100.00;96405.00;5030783;28;20068;-76
2021/11/09 07:10:07;;;;;;;58.92;16.88;;;;;;;-0.91;100.00;96405.91;5030312;28;20087;-76
2021/11/09 07:12:34;;;;;;;59.20;18.33;;;;;;;-0.94;100.00;96395.13;5027225;28;20049;-76
2021/11/09 07:15:00;;;;;;;50.50;17.35;;;;;;;-0.91;100.00;96390.41;5036216;28;20034;-77
2021/11/09 07:17:26;;;;;;;50.38;17.52;;;;;;;-0.83;100.00;96393.91;5025329;28;20688;-76
2021/11/09 07:19:52;;;;;;;46.28;17.17;;;;;;;-0.71;100.00;96400.25;5024243;28;20085;-76
2021/11/09 07:22:20;;;;;;;60.08;16.30;;;;;;;-0.74;100.00;96400.63;5050874;28;20053;-76
2021/11/09 07:24:46;;;;;;;48.72;17.92;;;;;;;-0.69;100.00;96398.28;5029166;28;20137;-76
2021/11/09 07:27:12;;;;;;;46.85;15.85;;;;;;;-0.70;100.00;96396.69;5026659;28;20060;-77
2021/11/09 07:29:44;;;;;;;42.92;15.52;;;;;;;-0.63;100.00;96397.59;5030853;28;20483;-77
2021/11/09 07:32:09;;;;;;;55.53;17.23;;;;;;;-0.72;100.00;96398.66;5030318;28;20050;-77
2021/11/09 07:34:35;;;;;;;39.97;14.48;;;;;;;-0.57;100.00;96396.88;5029639;28;20041;-76
2021/11/09 07:37:00;;;;;;;39.88;13.73;;;;;;;-0.34;100.00;96401.19;5030223;28;20423;-77
2021/11/09 07:39:26;;;;;;;62.90;14.57;;;;;;;-0.42;100.00;96401.28;5029985;28;20041;-76
2021/11/09 07:41:51;;;;;;;28.85;13.07;;;;;;;-0.40;100.00;96391.56;5028814;28;20168;-76
2021/11/09 07:44:17;;;;;;;34.10;13.43;;;;;;;-0.41;100.00;96406.25;5020945;28;20052;-76
2021/11/09 07:46:43;;;;;;;40.95;15.00;;;;;;;-0.42;100.00;96409.03;5029856;28;20468;-77
2021/11/09 07:49:09;;;;;;;38.63;15.52;;;;;;;-0.28;100.00;96405.63;5026496;28;20045;-77
2021/11/09 07:51:35;;;;;;;33.65;14.18;;;;;;;-0.35;100.00;96407.34;5025731;28;20056;-77
2021/11/09 07:54:01;;;;;;;25.65;12.15;;;;;;;-0.32;100.00;96399.22;5021230;28;20077;-77
2021/11/09 07:56:37;;;;;;;32.80;12.95;;;;;;;-0.23;100.00;96403.34;5022227;28;20049;-78
2021/11/09 08:01:45;;;;;;;31.13;12.50;;;;;;;-0.21;100.00;96395.41;5032566;28;20045;-77
2021/11/09 08:04:17;;;;;;;27.52;12.75;;;;;;;-0.19;100.00;96383.88;5023648;28;20057;-78
2021/11/09 08:06:52;;;;;;;24.70;10.88;;;;;;;0.11;100.00;96391.59;5028481;28;20041;-77
2021/11/09 08:11:54;;;;;;;24.85;11.20;;;;;;;0.00;100.00;96397.25;5028973;28;20049;-78
2021/11/09 08:14:19;;;;;;;21.77;10.70;;;;;;;0.09;100.00;96396.16;5033763;28;20470;-77
2021/11/09 08:16:49;;;;;;;21.38;10.52;;;;;;;0.11;100.00;96401.94;5027684;28;20037;-77
2021/11/09 08:19:16;;;;;;;24.48;11.65;;;;;;;0.08;100.00;96394.56;5028625;28;20451;-77
2021/11/09 08:21:43;;;;;;;28.23;12.75;;;;;;;0.10;100.00;96405.53;5029427;28;20045;-77
2021/11/09 08:24:10;;;;;;;25.30;12.10;;;;;;;0.14;100.00;96404.19;5029452;28;20057;-78
2021/11/09 08:26:37;;;;;;;27.88;12.10;;;;;;;0.32;100.00;96400.41;5028523;28;20491;-78
2021/11/09 08:29:04;;;;;;;27.40;11.02;;;;;;;0.49;100.00;96404.38;5020997;28;20046;-78
2021/11/09 08:31:32;;;;;;;22.17;10.85;;;;;;;0.59;100.00;96400.66;5012945;28;20042;-78
2021/11/09 08:33:59;;;;;;;24.27;11.35;;;;;;;0.54;100.00;96403.81;5036858;28;20045;-78
2021/11/09 08:36:34;;;;;;;23.92;11.27;;;;;;;0.65;100.00;96394.78;5028611;28;20041;-79
2021/11/09 08:39:04;;;;;;;24.25;11.40;;;;;;;0.67;100.00;96403.16;5025137;28;20050;-77
2021/11/09 08:42:00;;;;;;;24.20;12.38;;;;;;;0.71;100.00;96394.03;5024578;28;20076;-77
2021/11/09 08:44:20;;;;;;;22.50;11.77;;;;;;;0.58;100.00;96394.69;5014499;28;20068;-77
2021/11/09 08:46:54;;;;;;;26.35;11.68;;;;;;;0.74;100.00;96383.28;5028642;28;20041;-77
2021/11/09 08:49:22;;;;;;;23.55;11.90;;;;;;;0.96;100.00;96401.41;5028217;28;20054;-77
2021/11/09 08:51:50;;;;;;;23.40;10.57;;;;;;;1.15;100.00;96405.16;5035096;28;20157;-77
2021/11/09 09:05:00;;;;;;;25.08;11.35;;;;;;;1.69;100.00;96414.13;5026834;28;20041;-78
2021/11/09 09:07:28;;;;;;;25.33;10.60;;;;;;;1.71;100.00;96414.72;5029904;28;20049;-78
2021/11/09 09:09:56;;;;;;;22.90;11.07;;;;;;;1.94;100.00;96411.06;5021842;28;20128;-79
2021/11/09 09:12:22;;;;;;;21.23;10.75;;;;;;;2.01;100.00;96424.88;5020620;28;20052;-80
2021/11/09 09:14:48;;;;;;;21.20;10.95;;;;;;;1.99;100.00;96421.69;5026013;28;20447;-78
2021/11/09 09:17:14;;;;;;;25.73;11.30;;;;;;;2.13;100.00;96423.34;5025465;28;20041;-78
2021/11/09 09:20:00;;;;;;;20.55;10.32;;;;;;;2.25;100.00;96423.59;5040113;28;20577;-82
2021/11/09 09:22:35;;;;;;;20.35;10.55;;;;;;;2.54;100.00;96421.69;5027376;28;20053;-78
2021/11/09 09:25:17;;;;;;;;;;;;;;;2.60;100.00;96419.13;5029007;28;20741;-78
2021/11/09 09:28:05;;;;;;;25.88;10.73;;;;;;;2.90;100.00;96423.16;5029538;28;19932;-78
2021/11/09 09:30:59;;;;;;;19.92;10.15;;;;;;;3.38;97.52;96430.00;5029780;28;20515;-77
2021/11/09 09:55:34;;;;;;;12.70;5.53;;;;;;;7.69;73.81;96394.50;5028317;28;20042;-78
2021/11/09 09:58:00;;;;;;;11.45;5.70;;;;;;;8.57;70.24;96393.66;5026178;28;20045;-77
2021/11/09 10:00:26;;;;;;;10.15;5.55;;;;;;;8.59;70.84;96396.81;5027050;28;20044;-78
2021/11/09 10:02:54;;;;;;;10.95;5.10;;;;;;;8.20;70.20;96399.97;5026530;28;20053;-76
2021/11/09 10:05:22;;;;;;;10.95;5.35;;;;;;;9.32;67.30;96394.38;5028511;28;20120;-76
2021/11/09 10:07:53;;;;;;;10.27;4.78;;;;;;;9.88;64.77;96397.84;5023078;28;20052;-76
2021/11/09 10:10:24;;;;;;;10.82;5.32;;;;;;;8.96;64.15;96391.16;5024315;28;20585;-78
2021/11/09 10:13:03;;;;;;;11.40;5.10;;;;;;;9.72;63.79;96398.63;5024209;28;20041;-78
2021/11/09 10:15:32;;;;;;;12.93;5.05;;;;;;;9.39;68.44;96394.22;5024381;28;20068;-78
2021/11/09 10:18:03;;;;;;;10.70;5.10;;;;;;;8.96;66.29;96391.16;5021923;28;20042;-78
2021/11/09 10:20:34;;;;;;;12.15;5.15;;;;;;;9.71;65.58;96386.53;5026589;28;20038;-77
2021/11/09 10:23:07;;;;;;;12.55;5.22;;;;;;;9.38;64.29;96380.31;5028079;28;20049;-77
2021/11/09 10:25:35;;;;;;;12.98;5.78;;;;;;;9.12;66.83;96385.16;5016550;28;20042;-78
2021/11/09 10:28:07;;;;;;;11.27;5.45;;;;;;;8.94;65.68;96372.25;5029824;28;20392;-78
2021/11/09 10:30:39;;;;;;;13.63;5.00;;;;;;;9.79;61.96;96378.25;5031986;28;20068;-77
2021/11/09 10:33:05;;;;;;;11.90;5.75;;;;;;;8.86;63.76;96375.25;5029823;28;20669;-77
2021/11/09 10:35:32;;;;;;;10.55;5.43;;;;;;;10.04;61.63;96361.19;5029946;28;20120;-77
2021/11/09 10:38:03;;;;;;;11.65;5.10;;;;;;;10.04;60.97;96363.81;5018376;28;20045;-77
2021/11/09 10:40:32;;;;;;;8.90;4.93;;;;;;;10.85;60.13;96363.13;5017431;28;20045;-77
2021/11/09 10:43:04;;;;;;;13.48;5.50;;;;;;;10.84;56.70;96360.75;5027123;28;20119;-78
2021/11/09 10:45:33;;;;;;;12.77;5.30;;;;;;;10.78;59.65;96370.44;5016313;28;20038;-77
2021/11/09 10:48:03;;;;;;;10.82;4.70;;;;;;;10.01;58.56;96369.56;5027652;28;20034;-78
2021/11/09 10:50:38;;;;;;;11.18;4.65;;;;;;;11.81;57.54;96352.75;5031165;28;20042;-78
2021/11/09 10:53:32;;;;;;;8.25;4.70;;;;;;;10.96;57.58;96363.22;5023978;28;20046;-78
2021/11/09 11:04:36;;;;;;;7.43;3.72;;;;;;;11.50;53.74;96352.56;5030305;28;20048;-82
2021/11/09 11:07:15;;;;;;;9.95;3.78;;;;;;;11.79;53.47;96345.09;5030614;28;20053;-77
2021/11/09 11:09:57;;;;;;;7.65;3.95;;;;;;;11.24;55.25;96355.03;5025686;28;20053;-76
2021/11/09 11:12:26;;;;;;;7.72;4.13;;;;;;;11.18;53.31;96350.78;5030374;28;20057;-78
2021/11/09 11:14:52;;;;;;;9.10;3.80;;;;;;;10.94;56.31;96344.25;5026590;28;20528;-81
2021/11/09 11:17:18;;;;;;;9.63;4.07;;;;;;;10.31;55.54;96352.56;5028001;28;20042;-77
2021/11/09 11:19:46;;;;;;;8.20;3.97;;;;;;;10.53;56.37;96355.19;5024940;28;20495;-76
2021/11/09 11:22:15;;;;;;;9.35;4.05;;;;;;;10.82;55.22;96347.84;5024199;28;20054;-76
2021/11/09 11:24:42;;;;;;;7.65;3.80;;;;;;;11.67;53.26;96330.53;5021274;28;20083;-76
2021/11/09 11:27:09;;;;;;;7.70;3.90;;;;;;;11.47;54.29;96337.25;5026768;28;20056;-76
2021/11/09 11:29:37;;;;;;;9.80;3.72;;;;;;;11.40;51.90;96342.75;5030917;28;20041;-76
2021/11/09 11:32:09;;;;;;;5.95;3.45;;;;;;;11.87;51.19;96340.38;5028720;28;20092;-75
2021/11/09 11:34:35;;;;;;;7.97;3.58;;;;;;;12.83;50.48;96348.88;5026881;28;20111;-75
2021/11/09 11:37:01;;;;;;;7.97;4.15;;;;;;;12.46;48.45;96336.66;5025915;28;20096;-76
2021/11/09 11:39:31;;;;;;;7.55;3.97;;;;;;;11.44;53.61;96348.31;5027528;28;20041;-76
2021/11/09 11:42:07;;;;;;;13.32;4.10;;;;;;;12.61;48.87;96328.78;5027598;28;20077;-76
2021/11/09 11:44:33;;;;;;;9.88;3.90;;;;;;;12.18;51.14;96341.31;5015521;28;20439;-76
2021/11/09 11:47:11;;;;;;;6.53;4.03;;;;;;;10.69;52.16;96343.00;5027683;28;20038;-76
2021/11/09 11:49:39;;;;;;;8.90;4.00;;;;;;;12.11;52.62;96335.47;5027747;28;20048;-76
2021/11/09 11:52:08;;;;;;;8.93;3.97;;;;;;;12.22;49.89;96331.03;5028241;28;20491;-76
2021/11/09 11:54:52;;;;;;;10.15;4.28;;;;;;;13.31;48.65;96325.59;5020508;28;20072;-75
2021/11/09 11:57:41;;;;;;;8.52;3.90;;;;;;;12.64;48.41;96317.69;5028418;28;20045;-76
2021/11/09 12:00:33;;;;;;;9.18;4.25;;;;;;;13.28;49.67;96315.56;5027991;28;20589;-76
2021/11/09 12:03:02;;;;;;;8.10;4.32;;;;;;;12.60;49.88;96311.34;5027043;28;20099;-76
2021/11/09 12:05:42;;;;;;;9.52;4.32;;;;;;;12.03;52.21;96320.16;5027214;28;20045;-80
2021/11/09 12:08:14;;;;;;;10.30;4.20;;;;;;;12.10;51.07;96315.44;5028658;28;20099;-76
2021/11/09 12:10:51;;;;;;;13.27;4.05;;;;;;;13.00;49.84;96317.69;5029268;28;20133;-76
2021/11/09 12:13:20;;;;;;;8.70;4.20;;;;;;;11.77;50.21;96320.81;5029067;28;20049;-76
2021/11/09 12:15:55;;;;;;;7.72;4.35;;;;;;;12.06;49.31;96323.06;5015714;28;20041;-76
2021/11/09 12:18:35;;;;;;;9.63;4.57;;;;;;;11.53;50.94;96325.69;5022290;28;20053;-76
2021/11/09 12:21:24;;;;;;;10.43;4.65;;;;;;;12.21;49.68;96334.72;5027366;28;20057;-76
2021/11/09 12:24:10;;;;;;;11.82;4.90;;;;;;;11.13;51.13;96345.44;5022014;28;20054;-76
2021/11/09 12:26:42;;;;;;;9.20;4.13;;;;;;;11.98;52.31;96341.25;5021968;28;20045;-76
2021/11/09 12:29:36;;;;;;;12.43;5.47;;;;;;;11.00;52.73;96348.50;5029904;28;20131;-76
2021/11/09 12:32:20;;;;;;;12.73;5.10;;;;;;;11.00;54.04;96343.25;5029136;28;20041;-76
2021/11/09 12:35:05;;;;;;;10.60;5.53;;;;;;;10.37;55.01;96325.28;5019243;28;20041;-79
2021/11/09 12:37:37;;;;;;;11.57;5.40;;;;;;;10.15;54.89;96320.81;5029811;28;20081;-80
2021/11/09 12:40:29;;;;;;;13.68;5.80;;;;;;;9.62;58.08;96299.41;5029285;28;20784;-80
2021/11/09 12:43:10;;;;;;;12.18;5.95;;;;;;;9.46;58.44;96287.91;5020771;28;20172;-77
2021/11/09 12:45:37;;;;;;;18.33;6.63;;;;;;;7.94;63.13;96291.22;5018862;28;20087;-80
2021/11/09 12:48:09;;;;;;;12.82;6.63;;;;;;;7.67;64.03;96307.47;5020993;28;20049;-82
2021/11/09 12:50:36;;;;;;;14.55;6.28;;;;;;;8.12;64.82;96309.41;5020209;28;20506;-77
2021/11/09 12:53:10;;;;;;;15.07;6.32;;;;;;;7.85;64.58;96303.09;5017353;28;20037;-80
2021/11/09 12:55:38;;;;;;;15.07;6.32;;;;;;;8.14;64.91;96302.06;5014838;28;20045;-76
2021/11/09 12:58:20;;;;;;;15.40;6.82;;;;;;;7.22;66.61;96300.22;5021733;28;20060;-75
2021/11/09 13:04:00;;;;;;;14.80;6.63;;;;;;;6.74;69.56;96274.03;5014275;28;20046;-76
2021/11/09 13:06:41;;;;;;;15.48;7.15;;;;;;;6.75;70.32;96274.81;5026486;28;20046;-76
2021/11/09 13:09:15;;;;;;;20.90;7.90;;;;;;;6.62;70.80;96286.28;5020805;28;20049;-75
2021/11/09 13:11:46;;;;;;;19.35;8.13;;;;;;;6.46;71.34;96281.72;5023745;28;20148;-75
2021/11/09 13:14:11;;;;;;;17.33;8.07;;;;;;;6.50;72.85;96275.00;5022421;28;20030;-75
2021/11/09 13:16:46;;;;;;;22.80;8.10;;;;;;;6.45;72.71;96280.09;5035736;28;20177;-75
2021/11/09 13:19:12;;;;;;;21.17;8.70;;;;;;;6.22;72.98;96281.63;5050245;28;20037;-74
2021/11/09 13:21:39;;;;;;;22.60;9.32;;;;;;;6.34;74.03;96290.31;5046849;28;20090;-74
2021/11/09 13:24:06;;;;;;;19.25;8.73;;;;;;;6.23;73.61;96288.44;5050594;28;20063;-76
2021/11/09 13:26:32;;;;;;;19.13;8.82;;;;;;;5.95;74.94;96287.19;5055280;28;20038;-76
2021/11/09 13:29:06;;;;;;;20.33;9.35;;;;;;;5.93;75.47;96299.66;5055470;28;20142;-75
2021/11/09 13:31:32;;;;;;;18.10;8.45;;;;;;;5.83;74.95;96296.75;5054248;28;20029;-74
2021/11/09 13:34:02;;;;;;;23.48;9.50;;;;;;;5.83;75.52;96304.59;5047614;28;20040;-76
2021/11/09 13:36:28;;;;;;;27.20;9.77;;;;;;;5.79;75.35;96303.44;5054620;28;20083;-75
2021/11/09 13:38:57;;;;;;;19.63;8.43;;;;;;;5.69;76.34;96294.31;5051720;28;20041;-75
2021/11/09 13:41:31;;;;;;;15.20;7.95;;;;;;;5.96;76.32;96299.25;5035669;28;20382;-76
2021/11/09 13:44:12;;;;;;;18.63;8.30;;;;;;;6.06;74.82;96302.16;5024152;28;20532;-75
2021/11/09 13:46:40;;;;;;;14.88;8.15;;;;;;;6.00;76.64;96300.41;5009262;28;20400;-75
2021/11/09 13:49:10;;;;;;;18.02;6.95;;;;;;;6.09;74.57;96297.50;5030307;28;20054;-75
2021/11/09 13:51:43;;;;;;;19.23;8.38;;;;;;;6.00;75.77;96308.22;5017407;28;20618;-75
2021/11/09 13:54:18;;;;;;;21.77;8.60;;;;;;;5.67;76.17;96306.00;5027141;28;20038;-75
2021/11/09 13:56:46;;;;;;;19.08;8.75;;;;;;;5.54;76.76;96310.34;5025916;28;20554;-75
2021/11/09 13:59:14;;;;;;;18.25;8.13;;;;;;;5.91;77.00;96320.00;5028474;28;20094;-78